sensor_id;sensor_type;location;lat;lon;timestamp;P1;durP1;ratioP1;P2;durP2;ratioP2
68923;SDS011;55961;52.156;20.942;2022-10-13T00:01:31;36.65;;;16.63;;
68923;SDS011;55961;52.156;20.942;2022-10-13T00:03:57;34.13;;;16.48;;
68923;SDS011;55961;52.156;20.942;2022-10-13T00:06:24;29.70;;;15.57;;
68923;SDS011;55961;52.156;20.942;2022-10-13T00:08:51;38.53;;;17.67;;
68923;SDS011;55961;52.156;20.942;2022-10-13T00:11:18;34.22;;;17.08;;
68923;SDS011;55961;52.156;20.942;2022-10-13T00:13:46;40.72;;;21.42;;
68923;SDS011;55961;52.156;20.942;2022-10-13T00:16:17;39.65;;;19.48;;
68923;SDS011;55961;52.156;20.942;2022-10-13T00:18:45;36.35;;;18.45;;
68923;SDS011;55961;52.156;20.942;2022-10-13T00:21:13;37.10;;;19.10;;
68923;SDS011;55961;52.156;20.942;2022-10-13T00:23:42;32.65;;;17.73;;
68923;SDS011;55961;52.156;20.942;2022-10-13T00:26:11;37.63;;;18.23;;
68923;SDS011;55961;52.156;20.942;2022-10-13T00:28:38;37.45;;;17.95;;
68923;SDS011;55961;52.156;20.942;2022-10-13T00:33:40;40.00;;;18.17;;
68923;SDS011;55961;52.156;20.942;2022-10-13T00:36:05;36.03;;;17.15;;
68923;SDS011;55961;52.156;20.942;2022-10-13T00:38:32;35.67;;;18.17;;
68923;SDS011;55961;52.156;20.942;2022-10-13T00:40:58;39.10;;;18.57;;
68923;SDS011;55961;52.156;20.942;2022-10-13T00:43:25;39.38;;;18.65;;
68923;SDS011;55961;52.156;20.942;2022-10-13T00:46:11;38.95;;;18.25;;
68923;SDS011;55961;52.156;20.942;2022-10-13T00:48:37;36.25;;;18.10;;
68923;SDS011;55961;52.156;20.942;2022-10-13T00:51:07;32.80;;;17.27;;
68923;SDS011;55961;52.156;20.942;2022-10-13T00:53:47;34.57;;;16.80;;
68923;SDS011;55961;52.156;20.942;2022-10-13T00:56:14;36.20;;;17.42;;
68923;SDS011;55961;52.156;20.942;2022-10-13T00:58:43;31.90;;;17.95;;
68923;SDS011;55961;52.156;20.942;2022-10-13T01:01:11;37.88;;;18.55;;
68923;SDS011;55961;52.156;20.942;2022-10-13T01:03:37;35.33;;;19.53;;
68923;SDS011;55961;52.156;20.942;2022-10-13T01:06:03;42.30;;;20.98;;
68923;SDS011;55961;52.156;20.942;2022-10-13T01:08:30;39.17;;;22.08;;
68923;SDS011;55961;52.156;20.942;2022-10-13T01:17:17;50.00;;;23.00;;
68923;SDS011;55961;52.156;20.942;2022-10-13T01:30:28;46.30;;;22.53;;
68923;SDS011;55961;52.156;20.942;2022-10-13T01:39:00;47.33;;;21.83;;
68923;SDS011;55961;52.156;20.942;2022-10-13T01:44:27;54.50;;;24.50;;
68923;SDS011;55961;52.156;20.942;2022-10-13T01:46:57;57.78;;;25.92;;
68923;SDS011;55961;52.156;20.942;2022-10-13T01:49:29;54.53;;;26.30;;
68923;SDS011;55961;52.156;20.942;2022-10-13T01:52:00;50.05;;;27.08;;
68923;SDS011;55961;52.156;20.942;2022-10-13T01:54:46;54.03;;;26.70;;
68923;SDS011;55961;52.156;20.942;2022-10-13T01:57:31;56.33;;;26.07;;
68923;SDS011;55961;52.156;20.942;2022-10-13T01:59:59;56.15;;;26.33;;
68923;SDS011;55961;52.156;20.942;2022-10-13T02:02:42;49.10;;;25.75;;
68923;SDS011;55961;52.156;20.942;2022-10-13T02:08:16;52.28;;;24.98;;
68923;SDS011;55961;52.156;20.942;2022-10-13T02:10:55;52.87;;;25.60;;
68923;SDS011;55961;52.156;20.942;2022-10-13T02:13:27;47.60;;;25.08;;
68923;SDS011;55961;52.156;20.942;2022-10-13T02:16:05;45.08;;;24.63;;
68923;SDS011;55961;52.156;20.942;2022-10-13T02:18:32;51.50;;;26.00;;
68923;SDS011;55961;52.156;20.942;2022-10-13T02:21:00;48.15;;;25.65;;
68923;SDS011;55961;52.156;20.942;2022-10-13T02:23:27;49.50;;;24.83;;
68923;SDS011;55961;52.156;20.942;2022-10-13T02:25:54;51.88;;;26.08;;
68923;SDS011;55961;52.156;20.942;2022-10-13T02:28:22;51.67;;;26.63;;
68923;SDS011;55961;52.156;20.942;2022-10-13T02:30:48;49.45;;;25.45;;
68923;SDS011;55961;52.156;20.942;2022-10-13T02:33:15;48.53;;;25.52;;
68923;SDS011;55961;52.156;20.942;2022-10-13T02:35:41;47.23;;;24.13;;
68923;SDS011;55961;52.156;20.942;2022-10-13T02:38:07;43.92;;;24.70;;
68923;SDS011;55961;52.156;20.942;2022-10-13T02:40:34;48.95;;;25.98;;
68923;SDS011;55961;52.156;20.942;2022-10-13T02:42:59;49.92;;;25.25;;
68923;SDS011;55961;52.156;20.942;2022-10-13T02:45:26;47.27;;;25.30;;
68923;SDS011;55961;52.156;20.942;2022-10-13T02:47:52;45.42;;;24.98;;
68923;SDS011;55961;52.156;20.942;2022-10-13T02:50:18;53.33;;;25.02;;
68923;SDS011;55961;52.156;20.942;2022-10-13T02:52:43;42.43;;;22.97;;
68923;SDS011;55961;52.156;20.942;2022-10-13T02:55:09;43.65;;;24.38;;
68923;SDS011;55961;52.156;20.942;2022-10-13T02:57:35;50.80;;;24.67;;
68923;SDS011;55961;52.156;20.942;2022-10-13T03:00:01;51.17;;;26.47;;
68923;SDS011;55961;52.156;20.942;2022-10-13T03:02:29;46.67;;;26.38;;
68923;SDS011;55961;52.156;20.942;2022-10-13T03:04:55;45.80;;;25.40;;
68923;SDS011;55961;52.156;20.942;2022-10-13T03:07:21;48.37;;;24.80;;
68923;SDS011;55961;52.156;20.942;2022-10-13T03:09:47;52.13;;;27.27;;
68923;SDS011;55961;52.156;20.942;2022-10-13T03:12:13;46.80;;;25.17;;
68923;SDS011;55961;52.156;20.942;2022-10-13T03:14:38;50.47;;;25.88;;
68923;SDS011;55961;52.156;20.942;2022-10-13T03:17:04;52.78;;;26.27;;
68923;SDS011;55961;52.156;20.942;2022-10-13T03:19:30;56.27;;;27.47;;
68923;SDS011;55961;52.156;20.942;2022-10-13T03:21:56;51.30;;;29.17;;
68923;SDS011;55961;52.156;20.942;2022-10-13T03:24:22;52.45;;;27.60;;
68923;SDS011;55961;52.156;20.942;2022-10-13T03:26:48;52.13;;;27.60;;
68923;SDS011;55961;52.156;20.942;2022-10-13T03:29:14;55.63;;;26.90;;
68923;SDS011;55961;52.156;20.942;2022-10-13T03:31:41;51.22;;;26.65;;
68923;SDS011;55961;52.156;20.942;2022-10-13T03:34:10;53.23;;;26.67;;
68923;SDS011;55961;52.156;20.942;2022-10-13T03:36:37;49.42;;;25.25;;
68923;SDS011;55961;52.156;20.942;2022-10-13T03:39:03;56.78;;;30.88;;
68923;SDS011;55961;52.156;20.942;2022-10-13T03:41:29;51.05;;;26.33;;
68923;SDS011;55961;52.156;20.942;2022-10-13T03:43:54;57.40;;;28.63;;
68923;SDS011;55961;52.156;20.942;2022-10-13T03:46:20;59.78;;;31.52;;
68923;SDS011;55961;52.156;20.942;2022-10-13T03:48:48;61.35;;;32.22;;
68923;SDS011;55961;52.156;20.942;2022-10-13T03:51:18;67.07;;;33.57;;
68923;SDS011;55961;52.156;20.942;2022-10-13T03:53:46;64.40;;;31.05;;
68923;SDS011;55961;52.156;20.942;2022-10-13T03:56:16;54.88;;;27.20;;
68923;SDS011;55961;52.156;20.942;2022-10-13T03:58:43;47.10;;;23.88;;
68923;SDS011;55961;52.156;20.942;2022-10-13T04:01:10;50.47;;;25.00;;
68923;SDS011;55961;52.156;20.942;2022-10-13T04:03:38;48.30;;;24.77;;
68923;SDS011;55961;52.156;20.942;2022-10-13T04:06:04;46.67;;;23.50;;
68923;SDS011;55961;52.156;20.942;2022-10-13T04:08:31;49.75;;;24.20;;
68923;SDS011;55961;52.156;20.942;2022-10-13T04:11:02;49.43;;;24.13;;
68923;SDS011;55961;52.156;20.942;2022-10-13T04:13:30;42.63;;;23.63;;
68923;SDS011;55961;52.156;20.942;2022-10-13T04:16:00;49.13;;;23.80;;
68923;SDS011;55961;52.156;20.942;2022-10-13T04:18:27;47.63;;;21.88;;
68923;SDS011;55961;52.156;20.942;2022-10-13T04:20:53;45.07;;;21.30;;
68923;SDS011;55961;52.156;20.942;2022-10-13T04:23:19;42.03;;;22.20;;
68923;SDS011;55961;52.156;20.942;2022-10-13T04:25:45;51.80;;;23.50;;
68923;SDS011;55961;52.156;20.942;2022-10-13T04:28:11;41.87;;;22.83;;
68923;SDS011;55961;52.156;20.942;2022-10-13T04:30:37;46.22;;;22.90;;
68923;SDS011;55961;52.156;20.942;2022-10-13T04:33:03;61.53;;;37.28;;
68923;SDS011;55961;52.156;20.942;2022-10-13T04:35:29;58.88;;;30.65;;
68923;SDS011;55961;52.156;20.942;2022-10-13T04:37:55;92.35;;;45.67;;
68923;SDS011;55961;52.156;20.942;2022-10-13T04:40:24;60.33;;;32.37;;
68923;SDS011;55961;52.156;20.942;2022-10-13T04:42:50;53.20;;;27.27;;
68923;SDS011;55961;52.156;20.942;2022-10-13T04:45:16;50.17;;;25.42;;
68923;SDS011;55961;52.156;20.942;2022-10-13T04:47:42;42.67;;;22.80;;
68923;SDS011;55961;52.156;20.942;2022-10-13T04:50:09;42.83;;;22.93;;
68923;SDS011;55961;52.156;20.942;2022-10-13T04:52:35;47.08;;;23.52;;
68923;SDS011;55961;52.156;20.942;2022-10-13T04:55:01;50.13;;;22.80;;
68923;SDS011;55961;52.156;20.942;2022-10-13T04:57:27;46.70;;;22.50;;
68923;SDS011;55961;52.156;20.942;2022-10-13T04:59:53;44.78;;;22.60;;
68923;SDS011;55961;52.156;20.942;2022-10-13T05:02:19;42.57;;;22.53;;
68923;SDS011;55961;52.156;20.942;2022-10-13T05:04:45;43.90;;;22.67;;
68923;SDS011;55961;52.156;20.942;2022-10-13T05:07:10;42.92;;;23.13;;
68923;SDS011;55961;52.156;20.942;2022-10-13T05:09:36;48.67;;;23.17;;
68923;SDS011;55961;52.156;20.942;2022-10-13T05:12:02;48.50;;;26.93;;
68923;SDS011;55961;52.156;20.942;2022-10-13T05:14:28;44.42;;;24.10;;
68923;SDS011;55961;52.156;20.942;2022-10-13T05:16:56;43.92;;;22.25;;
68923;SDS011;55961;52.156;20.942;2022-10-13T05:19:22;42.80;;;21.73;;
68923;SDS011;55961;52.156;20.942;2022-10-13T05:21:48;40.67;;;21.13;;
68923;SDS011;55961;52.156;20.942;2022-10-13T05:24:13;41.17;;;21.98;;
68923;SDS011;55961;52.156;20.942;2022-10-13T05:26:40;44.00;;;21.20;;
68923;SDS011;55961;52.156;20.942;2022-10-13T05:29:06;38.57;;;21.60;;
68923;SDS011;55961;52.156;20.942;2022-10-13T05:31:34;42.38;;;22.70;;
68923;SDS011;55961;52.156;20.942;2022-10-13T05:34:00;38.50;;;20.80;;
68923;SDS011;55961;52.156;20.942;2022-10-13T05:36:31;37.80;;;20.42;;
68923;SDS011;55961;52.156;20.942;2022-10-13T05:38:59;42.75;;;21.95;;
68923;SDS011;55961;52.156;20.942;2022-10-13T05:41:27;48.47;;;22.33;;
68923;SDS011;55961;52.156;20.942;2022-10-13T05:43:55;42.72;;;22.77;;
68923;SDS011;55961;52.156;20.942;2022-10-13T05:46:23;45.67;;;22.02;;
68923;SDS011;55961;52.156;20.942;2022-10-13T05:48:49;40.22;;;22.05;;
68923;SDS011;55961;52.156;20.942;2022-10-13T05:51:17;44.00;;;23.75;;
68923;SDS011;55961;52.156;20.942;2022-10-13T05:53:48;47.63;;;24.03;;
68923;SDS011;55961;52.156;20.942;2022-10-13T05:56:18;43.63;;;23.58;;
68923;SDS011;55961;52.156;20.942;2022-10-13T05:58:49;40.10;;;22.98;;
68923;SDS011;55961;52.156;20.942;2022-10-13T06:01:19;44.53;;;22.67;;
68923;SDS011;55961;52.156;20.942;2022-10-13T06:03:48;41.45;;;20.92;;
68923;SDS011;55961;52.156;20.942;2022-10-13T06:06:18;42.83;;;20.80;;
68923;SDS011;55961;52.156;20.942;2022-10-13T06:08:44;37.00;;;19.83;;
68923;SDS011;55961;52.156;20.942;2022-10-13T06:11:10;39.83;;;20.33;;
68923;SDS011;55961;52.156;20.942;2022-10-13T06:13:36;37.92;;;20.13;;
68923;SDS011;55961;52.156;20.942;2022-10-13T06:16:01;38.67;;;19.47;;
68923;SDS011;55961;52.156;20.942;2022-10-13T06:18:28;35.58;;;20.10;;
68923;SDS011;55961;52.156;20.942;2022-10-13T06:20:54;36.90;;;18.87;;
68923;SDS011;55961;52.156;20.942;2022-10-13T06:23:19;36.33;;;18.95;;
68923;SDS011;55961;52.156;20.942;2022-10-13T06:25:46;35.30;;;19.10;;
68923;SDS011;55961;52.156;20.942;2022-10-13T06:28:12;36.20;;;18.13;;
68923;SDS011;55961;52.156;20.942;2022-10-13T06:30:38;34.57;;;18.93;;
68923;SDS011;55961;52.156;20.942;2022-10-13T06:33:04;34.33;;;18.45;;
68923;SDS011;55961;52.156;20.942;2022-10-13T06:35:30;41.63;;;19.02;;
68923;SDS011;55961;52.156;20.942;2022-10-13T06:37:57;37.43;;;19.27;;
68923;SDS011;55961;52.156;20.942;2022-10-13T06:40:22;35.78;;;18.25;;
68923;SDS011;55961;52.156;20.942;2022-10-13T06:42:49;39.70;;;20.65;;
68923;SDS011;55961;52.156;20.942;2022-10-13T06:45:15;40.10;;;20.92;;
68923;SDS011;55961;52.156;20.942;2022-10-13T06:47:43;44.00;;;20.07;;
68923;SDS011;55961;52.156;20.942;2022-10-13T06:50:10;40.28;;;20.98;;
68923;SDS011;55961;52.156;20.942;2022-10-13T06:52:36;33.55;;;19.50;;
68923;SDS011;55961;52.156;20.942;2022-10-13T06:55:02;33.40;;;18.00;;
68923;SDS011;55961;52.156;20.942;2022-10-13T06:57:29;32.80;;;17.97;;
68923;SDS011;55961;52.156;20.942;2022-10-13T06:59:55;32.03;;;16.80;;
68923;SDS011;55961;52.156;20.942;2022-10-13T07:02:20;40.28;;;17.13;;
68923;SDS011;55961;52.156;20.942;2022-10-13T07:04:46;34.30;;;17.60;;
68923;SDS011;55961;52.156;20.942;2022-10-13T07:07:13;37.25;;;18.45;;
68923;SDS011;55961;52.156;20.942;2022-10-13T07:09:40;36.60;;;18.63;;
68923;SDS011;55961;52.156;20.942;2022-10-13T07:12:06;38.88;;;18.92;;
68923;SDS011;55961;52.156;20.942;2022-10-13T07:14:32;37.90;;;17.03;;
68923;SDS011;55961;52.156;20.942;2022-10-13T07:16:58;38.97;;;16.75;;
68923;SDS011;55961;52.156;20.942;2022-10-13T07:19:24;40.53;;;16.73;;
68923;SDS011;55961;52.156;20.942;2022-10-13T07:21:49;33.20;;;15.50;;
68923;SDS011;55961;52.156;20.942;2022-10-13T07:24:16;34.08;;;16.75;;
68923;SDS011;55961;52.156;20.942;2022-10-13T07:26:42;26.90;;;13.65;;
68923;SDS011;55961;52.156;20.942;2022-10-13T07:29:07;28.10;;;12.87;;
68923;SDS011;55961;52.156;20.942;2022-10-13T07:31:33;30.42;;;13.40;;
68923;SDS011;55961;52.156;20.942;2022-10-13T07:33:59;28.70;;;11.82;;
68923;SDS011;55961;52.156;20.942;2022-10-13T07:36:25;27.45;;;12.13;;
68923;SDS011;55961;52.156;20.942;2022-10-13T07:38:52;29.90;;;12.70;;
68923;SDS011;55961;52.156;20.942;2022-10-13T07:41:18;27.93;;;12.53;;
68923;SDS011;55961;52.156;20.942;2022-10-13T07:43:44;24.83;;;11.10;;
68923;SDS011;55961;52.156;20.942;2022-10-13T07:46:11;24.52;;;11.55;;
68923;SDS011;55961;52.156;20.942;2022-10-13T07:48:38;22.77;;;11.07;;
68923;SDS011;55961;52.156;20.942;2022-10-13T07:51:04;22.70;;;10.17;;
68923;SDS011;55961;52.156;20.942;2022-10-13T07:53:32;23.80;;;10.43;;
68923;SDS011;55961;52.156;20.942;2022-10-13T07:56:00;29.00;;;10.88;;
68923;SDS011;55961;52.156;20.942;2022-10-13T07:58:26;26.73;;;11.38;;
68923;SDS011;55961;52.156;20.942;2022-10-13T08:00:58;22.50;;;10.48;;
68923;SDS011;55961;52.156;20.942;2022-10-13T08:03:25;21.23;;;9.60;;
68923;SDS011;55961;52.156;20.942;2022-10-13T08:05:52;23.70;;;9.98;;
68923;SDS011;55961;52.156;20.942;2022-10-13T08:08:18;29.50;;;10.38;;
68923;SDS011;55961;52.156;20.942;2022-10-13T08:10:45;18.48;;;9.25;;
68923;SDS011;55961;52.156;20.942;2022-10-13T08:13:11;23.70;;;9.75;;
68923;SDS011;55961;52.156;20.942;2022-10-13T08:15:38;18.63;;;9.30;;
68923;SDS011;55961;52.156;20.942;2022-10-13T08:18:05;17.58;;;8.57;;
68923;SDS011;55961;52.156;20.942;2022-10-13T08:20:31;22.55;;;9.90;;
68923;SDS011;55961;52.156;20.942;2022-10-13T08:22:58;18.60;;;9.00;;
68923;SDS011;55961;52.156;20.942;2022-10-13T08:25:24;21.73;;;8.90;;
68923;SDS011;55961;52.156;20.942;2022-10-13T08:27:50;25.90;;;9.53;;
68923;SDS011;55961;52.156;20.942;2022-10-13T08:30:16;22.33;;;9.35;;
68923;SDS011;55961;52.156;20.942;2022-10-13T08:32:42;23.70;;;9.90;;
68923;SDS011;55961;52.156;20.942;2022-10-13T08:35:08;22.20;;;10.15;;
68923;SDS011;55961;52.156;20.942;2022-10-13T08:37:34;17.15;;;9.27;;
68923;SDS011;55961;52.156;20.942;2022-10-13T08:40:00;21.07;;;8.70;;
68923;SDS011;55961;52.156;20.942;2022-10-13T08:42:26;21.45;;;9.90;;
68923;SDS011;55961;52.156;20.942;2022-10-13T08:44:54;20.50;;;8.65;;
68923;SDS011;55961;52.156;20.942;2022-10-13T08:47:26;18.52;;;9.30;;
68923;SDS011;55961;52.156;20.942;2022-10-13T08:50:02;18.27;;;9.03;;
68923;SDS011;55961;52.156;20.942;2022-10-13T08:52:45;17.35;;;8.13;;
68923;SDS011;55961;52.156;20.942;2022-10-13T08:58:05;18.33;;;8.20;;
68923;SDS011;55961;52.156;20.942;2022-10-13T09:00:40;14.55;;;7.18;;
68923;SDS011;55961;52.156;20.942;2022-10-13T09:03:14;15.47;;;7.77;;
68923;SDS011;55961;52.156;20.942;2022-10-13T09:08:39;16.17;;;6.22;;
68923;SDS011;55961;52.156;20.942;2022-10-13T09:11:10;14.98;;;6.95;;
68923;SDS011;55961;52.156;20.942;2022-10-13T09:13:37;15.80;;;6.32;;
68923;SDS011;55961;52.156;20.942;2022-10-13T09:16:02;14.47;;;6.73;;
68923;SDS011;55961;52.156;20.942;2022-10-13T09:18:29;15.85;;;6.88;;
68923;SDS011;55961;52.156;20.942;2022-10-13T09:21:08;18.95;;;7.00;;
68923;SDS011;55961;52.156;20.942;2022-10-13T09:23:35;21.48;;;6.90;;
68923;SDS011;55961;52.156;20.942;2022-10-13T09:26:05;11.20;;;5.93;;
68923;SDS011;55961;52.156;20.942;2022-10-13T09:28:33;12.20;;;6.85;;
68923;SDS011;55961;52.156;20.942;2022-10-13T09:31:33;14.27;;;6.25;;
68923;SDS011;55961;52.156;20.942;2022-10-13T09:34:35;15.27;;;6.13;;
68923;SDS011;55961;52.156;20.942;2022-10-13T09:36:54;13.63;;;5.70;;
68923;SDS011;55961;52.156;20.942;2022-10-13T09:39:25;15.65;;;6.28;;
68923;SDS011;55961;52.156;20.942;2022-10-13T09:41:52;14.27;;;6.07;;
68923;SDS011;55961;52.156;20.942;2022-10-13T09:44:57;10.77;;;5.72;;
68923;SDS011;55961;52.156;20.942;2022-10-13T09:47:37;11.15;;;5.05;;
68923;SDS011;55961;52.156;20.942;2022-10-13T09:50:26;12.63;;;5.10;;
68923;SDS011;55961;52.156;20.942;2022-10-13T09:52:51;13.43;;;5.00;;
68923;SDS011;55961;52.156;20.942;2022-10-13T09:55:31;11.48;;;4.82;;
68923;SDS011;55961;52.156;20.942;2022-10-13T09:58:09;13.23;;;5.20;;
68923;SDS011;55961;52.156;20.942;2022-10-13T10:00:40;8.10;;;4.25;;
68923;SDS011;55961;52.156;20.942;2022-10-13T10:03:21;10.53;;;4.20;;
68923;SDS011;55961;52.156;20.942;2022-10-13T10:05:52;9.85;;;4.05;;
68923;SDS011;55961;52.156;20.942;2022-10-13T10:11:02;11.30;;;3.13;;
68923;SDS011;55961;52.156;20.942;2022-10-13T10:13:34;7.82;;;3.40;;
68923;SDS011;55961;52.156;20.942;2022-10-13T10:24:06;6.80;;;2.70;;
68923;SDS011;55961;52.156;20.942;2022-10-13T10:26:59;5.82;;;2.67;;
68923;SDS011;55961;52.156;20.942;2022-10-13T10:32:20;7.30;;;2.47;;
68923;SDS011;55961;52.156;20.942;2022-10-13T10:34:54;9.15;;;2.70;;
68923;SDS011;55961;52.156;20.942;2022-10-13T10:37:40;8.55;;;2.70;;
68923;SDS011;55961;52.156;20.942;2022-10-13T10:45:36;9.30;;;3.00;;
68923;SDS011;55961;52.156;20.942;2022-10-13T10:48:06;11.77;;;2.67;;
68923;SDS011;55961;52.156;20.942;2022-10-13T10:50:46;7.65;;;3.38;;
68923;SDS011;55961;52.156;20.942;2022-10-13T10:53:17;9.00;;;2.90;;
68923;SDS011;55961;52.156;20.942;2022-10-13T10:56:07;7.03;;;2.70;;
68923;SDS011;55961;52.156;20.942;2022-10-13T10:58:48;8.85;;;2.70;;
68923;SDS011;55961;52.156;20.942;2022-10-13T11:01:50;14.27;;;3.47;;
68923;SDS011;55961;52.156;20.942;2022-10-13T11:07:09;9.63;;;3.20;;
68923;SDS011;55961;52.156;20.942;2022-10-13T11:12:23;7.13;;;2.83;;
68923;SDS011;55961;52.156;20.942;2022-10-13T11:17:28;7.88;;;2.58;;
68923;SDS011;55961;52.156;20.942;2022-10-13T11:19:56;6.57;;;1.53;;
68923;SDS011;55961;52.156;20.942;2022-10-13T11:22:32;10.25;;;3.00;;
68923;SDS011;55961;52.156;20.942;2022-10-13T11:27:57;11.60;;;2.10;;
68923;SDS011;55961;52.156;20.942;2022-10-13T11:30:41;10.93;;;2.63;;
68923;SDS011;55961;52.156;20.942;2022-10-13T11:47:06;14.57;;;7.60;;
68923;SDS011;55961;52.156;20.942;2022-10-13T11:50:06;10.82;;;3.45;;
68923;SDS011;55961;52.156;20.942;2022-10-13T11:55:29;8.35;;;2.85;;
68923;SDS011;55961;52.156;20.942;2022-10-13T12:00:37;9.05;;;3.40;;
68923;SDS011;55961;52.156;20.942;2022-10-13T12:03:18;8.55;;;3.22;;
68923;SDS011;55961;52.156;20.942;2022-10-13T12:05:50;10.55;;;2.85;;
68923;SDS011;55961;52.156;20.942;2022-10-13T12:08:16;9.82;;;3.03;;
68923;SDS011;55961;52.156;20.942;2022-10-13T12:10:44;9.97;;;3.90;;
68923;SDS011;55961;52.156;20.942;2022-10-13T12:13:21;9.20;;;2.63;;
68923;SDS011;55961;52.156;20.942;2022-10-13T12:16:10;11.50;;;3.38;;
68923;SDS011;55961;52.156;20.942;2022-10-13T12:18:38;13.38;;;5.40;;
68923;SDS011;55961;52.156;20.942;2022-10-13T12:21:09;13.38;;;5.07;;
68923;SDS011;55961;52.156;20.942;2022-10-13T12:23:36;10.23;;;2.93;;
68923;SDS011;55961;52.156;20.942;2022-10-13T12:26:03;10.73;;;3.00;;
68923;SDS011;55961;52.156;20.942;2022-10-13T12:28:42;10.15;;;4.35;;
68923;SDS011;55961;52.156;20.942;2022-10-13T12:31:23;8.75;;;2.78;;
68923;SDS011;55961;52.156;20.942;2022-10-13T12:34:12;8.88;;;2.95;;
68923;SDS011;55961;52.156;20.942;2022-10-13T12:36:44;8.50;;;3.30;;
68923;SDS011;55961;52.156;20.942;2022-10-13T12:39:15;11.40;;;3.45;;
68923;SDS011;55961;52.156;20.942;2022-10-13T12:41:43;5.88;;;2.33;;
68923;SDS011;55961;52.156;20.942;2022-10-13T12:44:12;12.32;;;3.17;;
68923;SDS011;55961;52.156;20.942;2022-10-13T12:49:18;9.43;;;4.10;;
68923;SDS011;55961;52.156;20.942;2022-10-13T12:51:50;9.55;;;3.50;;
68923;SDS011;55961;52.156;20.942;2022-10-13T12:54:30;9.40;;;4.07;;
68923;SDS011;55961;52.156;20.942;2022-10-13T12:56:59;11.95;;;4.45;;
68923;SDS011;55961;52.156;20.942;2022-10-13T12:59:29;11.60;;;3.78;;
68923;SDS011;55961;52.156;20.942;2022-10-13T13:02:12;11.00;;;3.97;;
68923;SDS011;55961;52.156;20.942;2022-10-13T13:04:48;14.70;;;4.68;;
68923;SDS011;55961;52.156;20.942;2022-10-13T13:07:25;11.90;;;4.57;;
68923;SDS011;55961;52.156;20.942;2022-10-13T13:12:32;13.10;;;4.40;;
68923;SDS011;55961;52.156;20.942;2022-10-13T13:15:19;17.20;;;6.97;;
68923;SDS011;55961;52.156;20.942;2022-10-13T13:17:53;12.38;;;4.75;;
68923;SDS011;55961;52.156;20.942;2022-10-13T13:20:21;11.82;;;4.22;;
68923;SDS011;55961;52.156;20.942;2022-10-13T13:22:52;10.23;;;3.78;;
68923;SDS011;55961;52.156;20.942;2022-10-13T13:25:18;10.85;;;4.28;;
68923;SDS011;55961;52.156;20.942;2022-10-13T13:27:44;11.47;;;4.47;;
68923;SDS011;55961;52.156;20.942;2022-10-13T13:30:10;10.38;;;4.05;;
68923;SDS011;55961;52.156;20.942;2022-10-13T13:32:38;10.77;;;3.75;;
68923;SDS011;55961;52.156;20.942;2022-10-13T13:35:05;9.32;;;3.30;;
68923;SDS011;55961;52.156;20.942;2022-10-13T13:37:35;9.47;;;3.57;;
68923;SDS011;55961;52.156;20.942;2022-10-13T13:40:09;9.63;;;2.97;;
68923;SDS011;55961;52.156;20.942;2022-10-13T13:42:40;12.48;;;3.42;;
68923;SDS011;55961;52.156;20.942;2022-10-13T13:45:06;13.10;;;3.63;;
68923;SDS011;55961;52.156;20.942;2022-10-13T13:47:32;12.80;;;4.00;;
68923;SDS011;55961;52.156;20.942;2022-10-13T13:49:58;10.68;;;4.00;;
68923;SDS011;55961;52.156;20.942;2022-10-13T13:52:24;11.68;;;3.88;;
68923;SDS011;55961;52.156;20.942;2022-10-13T13:54:50;9.23;;;3.60;;
68923;SDS011;55961;52.156;20.942;2022-10-13T13:57:16;8.52;;;3.40;;
68923;SDS011;55961;52.156;20.942;2022-10-13T13:59:43;11.73;;;3.50;;
68923;SDS011;55961;52.156;20.942;2022-10-13T14:02:14;9.57;;;3.85;;
68923;SDS011;55961;52.156;20.942;2022-10-13T14:04:44;8.40;;;3.17;;
68923;SDS011;55961;52.156;20.942;2022-10-13T14:07:10;11.77;;;3.53;;
68923;SDS011;55961;52.156;20.942;2022-10-13T14:09:37;9.05;;;2.92;;
68923;SDS011;55961;52.156;20.942;2022-10-13T14:12:03;12.40;;;3.50;;
68923;SDS011;55961;52.156;20.942;2022-10-13T14:14:29;12.27;;;3.70;;
68923;SDS011;55961;52.156;20.942;2022-10-13T14:16:56;10.83;;;3.43;;
68923;SDS011;55961;52.156;20.942;2022-10-13T14:19:23;9.93;;;3.70;;
68923;SDS011;55961;52.156;20.942;2022-10-13T14:21:49;10.50;;;4.00;;
68923;SDS011;55961;52.156;20.942;2022-10-13T14:24:15;11.27;;;3.90;;
68923;SDS011;55961;52.156;20.942;2022-10-13T14:26:40;11.27;;;4.13;;
68923;SDS011;55961;52.156;20.942;2022-10-13T14:29:06;7.90;;;3.30;;
68923;SDS011;55961;52.156;20.942;2022-10-13T14:31:32;9.23;;;3.70;;
68923;SDS011;55961;52.156;20.942;2022-10-13T14:33:58;10.52;;;3.80;;
68923;SDS011;55961;52.156;20.942;2022-10-13T14:36:24;11.30;;;4.15;;
68923;SDS011;55961;52.156;20.942;2022-10-13T14:38:50;12.70;;;4.63;;
68923;SDS011;55961;52.156;20.942;2022-10-13T14:41:16;12.77;;;4.37;;
68923;SDS011;55961;52.156;20.942;2022-10-13T14:43:43;11.05;;;4.50;;
68923;SDS011;55961;52.156;20.942;2022-10-13T14:46:09;13.20;;;4.60;;
68923;SDS011;55961;52.156;20.942;2022-10-13T14:48:35;10.63;;;4.13;;
68923;SDS011;55961;52.156;20.942;2022-10-13T14:51:02;12.90;;;4.87;;
68923;SDS011;55961;52.156;20.942;2022-10-13T14:53:36;10.15;;;4.00;;
68923;SDS011;55961;52.156;20.942;2022-10-13T14:56:11;10.07;;;4.38;;
68923;SDS011;55961;52.156;20.942;2022-10-13T14:58:47;11.38;;;3.97;;
68923;SDS011;55961;52.156;20.942;2022-10-13T15:01:15;15.27;;;4.82;;
68923;SDS011;55961;52.156;20.942;2022-10-13T15:03:41;10.83;;;4.73;;
68923;SDS011;55961;52.156;20.942;2022-10-13T15:06:09;11.30;;;4.35;;
68923;SDS011;55961;52.156;20.942;2022-10-13T15:08:41;10.23;;;4.72;;
68923;SDS011;55961;52.156;20.942;2022-10-13T15:11:08;13.93;;;4.25;;
68923;SDS011;55961;52.156;20.942;2022-10-13T15:13:35;13.87;;;4.60;;
68923;SDS011;55961;52.156;20.942;2022-10-13T15:16:01;11.63;;;4.40;;
68923;SDS011;55961;52.156;20.942;2022-10-13T15:18:32;14.05;;;4.65;;
68923;SDS011;55961;52.156;20.942;2022-10-13T15:20:59;13.85;;;4.80;;
68923;SDS011;55961;52.156;20.942;2022-10-13T15:23:25;13.00;;;4.47;;
68923;SDS011;55961;52.156;20.942;2022-10-13T15:25:52;10.77;;;4.70;;
68923;SDS011;55961;52.156;20.942;2022-10-13T15:28:20;14.85;;;5.20;;
68923;SDS011;55961;52.156;20.942;2022-10-13T15:30:47;14.57;;;7.00;;
68923;SDS011;55961;52.156;20.942;2022-10-13T15:33:13;19.42;;;7.75;;
68923;SDS011;55961;52.156;20.942;2022-10-13T15:35:39;19.10;;;9.20;;
68923;SDS011;55961;52.156;20.942;2022-10-13T15:38:05;19.25;;;11.18;;
68923;SDS011;55961;52.156;20.942;2022-10-13T15:40:30;21.23;;;11.37;;
68923;SDS011;55961;52.156;20.942;2022-10-13T15:43:00;21.35;;;9.65;;
68923;SDS011;55961;52.156;20.942;2022-10-13T15:45:26;28.48;;;11.32;;
68923;SDS011;55961;52.156;20.942;2022-10-13T15:47:52;23.40;;;10.37;;
68923;SDS011;55961;52.156;20.942;2022-10-13T15:50:18;37.13;;;16.90;;
68923;SDS011;55961;52.156;20.942;2022-10-13T15:52:44;36.47;;;16.58;;
68923;SDS011;55961;52.156;20.942;2022-10-13T15:55:10;53.17;;;24.27;;
68923;SDS011;55961;52.156;20.942;2022-10-13T15:57:36;50.03;;;22.48;;
68923;SDS011;55961;52.156;20.942;2022-10-13T16:00:04;40.33;;;18.75;;